Terminal Aerodrome Forecast
Issued by NWS

Home | Current Version | Previous Version | Graphics & Text | Print | Product List | Glossary Off
Versions: 1 2 3 4 5 6 7 8 9 10 11 12 13 14 15 16 17 18 19 20 21 22

000
FTUS43 KDDC 221131
TAFGCK
TAF
KGCK 221131Z 2212/2312 09010KT P6SM OVC025
     FM221900 16012KT P6SM OVC035
     FM230400 15013G21KT 5SM BR OVC020
     FM230600 17012G20KT 2SM BR OVC003
     FM230900 17012G20KT 2SM BR OVC003 WS020/19050KT=

USA.gov is the U.S. government's official web portal to all federal, state and local government web resources and services.